Terminal Aerodrome Forecast
Issued by NWS Grand Forks, ND

Home | Current Version | Previous Version | Text Only | Print | Product List | Glossary On
Versions: 1 2 3 4 5 6 7 8 9 10 11 12 13 14 15 16
000
FTUS43 KFGF 021700
TAFGFK
TAF
KGFK 021737Z 0218/0318 25008KT P6SM SCT040
     FM030200 27015G25KT P6SM -SHRA BKN050
     FM030400 31023G32KT P6SM BKN050
     FM031200 30025G35KT 4SM -RASN OVC010=

USA.gov is the U.S. government's official web portal to all federal, state and local government web resources and services.